Search for airport 
image banner adimage banner ad
image banner ad

UGGT - Telavi

Located in Telavi, Georgia

ICAO - , IATA -

Data provided by Airmate  

General information

Coordinates: N41°57'12" E45°30'32"
Elevation is 1496 feet MSL.
Magnetic variation is 6° East
Rated:
View ratings: [VIEW]


View others Airports in Kakheti

Operational data

Open for public use
Current time UTC:
Current local time:
Weather at : UGTB - Tbilisi/Tbilisi ( 56 km )
METAR: UGTB 210430Z 32021KT CAVOK 19/13 Q1012 TEMPO 32025KT
TAF: TAF UGTB 202300Z 2100/2124 32007KT 9999 BKN060 TX20/2112Z TN17/2101Z BECMG 2101/2104 32025KT SCT050 PROB40 TEMPO 2101/2103 32010KT BKN040CB TEMPO 2108/2115 32043G55KT TSRA BKN025CB BECMG 2115/2117 NSC
View NOTAMs / SUP AIP / TFR affecting this airport [VIEW]
Communications frequencies: [VIEW]

Runways:

RWY identifierQFULength (ft)Width (ft)SurfaceLDA (ft)
10102°377382CONC+ASPH3773
28282°377382CONC+ASPH3773

Airport contact information

Address: Telavi Georgia

Satellite view of UGGT